Time;durP1;ratioP1;P1;durP2;ratioP2;P2;SDS_P1;SDS_P2;PMS_P1;PMS_P2;Temp;Humidity;BMP_temperature;BMP_pressure;BME280_temperature;BME280_humidity;BME280_pressure;Samples;Min_cycle;Max_cycle;Signal;HPM_P1;HPM_P2
2023/07/20 00:02:02;;;;;;;13.07;12.43;;;20.90;95.80;;;;;;6211491;23;20401;-75
2023/07/20 00:04:29;;;;;;;13.40;12.60;;;20.80;96.40;;;;;;6211725;23;20819;-75
2023/07/20 00:06:56;;;;;;;12.43;11.83;;;20.80;96.80;;;;;;6212993;23;20405;-74
2023/07/20 00:09:24;;;;;;;12.53;11.93;;;20.70;96.60;;;;;;6213426;23;20440;-75
2023/07/20 00:11:52;;;;;;;12.23;11.63;;;20.60;96.80;;;;;;6213631;23;20412;-74
2023/07/20 00:14:19;;;;;;;12.70;12.10;;;20.50;96.60;;;;;;6212878;23;20439;-75
2023/07/20 00:16:49;;;;;;;14.40;13.80;;;20.40;96.60;;;;;;6215007;23;20404;-74
2023/07/20 00:19:16;;;;;;;12.80;12.30;;;20.30;96.10;;;;;;6213456;23;20409;-74
2023/07/20 00:21:43;;;;;;;12.60;12.03;;;20.20;96.20;;;;;;6213383;23;20463;-74
2023/07/20 00:24:09;;;;;;;12.80;12.20;;;20.10;96.30;;;;;;6213312;23;20409;-74
2023/07/20 00:26:38;;;;;;;12.20;11.70;;;20.00;96.40;;;;;;6213522;23;20437;-74
2023/07/20 00:29:05;;;;;;;13.30;12.60;;;19.90;96.30;;;;;;6213452;23;20444;-75
2023/07/20 00:31:32;;;;;;;14.00;13.37;;;19.90;96.50;;;;;;6214661;23;20740;-74
2023/07/20 00:33:58;;;;;;;13.03;12.33;;;19.80;95.90;;;;;;6213329;23;20920;-73
2023/07/20 00:36:25;;;;;;;12.27;11.77;;;19.70;95.70;;;;;;6213243;23;20519;-73
2023/07/20 00:38:52;;;;;;;11.60;11.10;;;19.80;95.20;;;;;;6213655;23;20409;-75
2023/07/20 00:41:19;;;;;;;13.70;13.20;;;19.80;94.70;;;;;;6213263;23;20424;-75
2023/07/20 00:43:47;;;;;;;13.17;12.47;;;19.80;94.20;;;;;;6213084;23;20408;-73
2023/07/20 00:46:16;;;;;;;11.97;11.47;;;19.80;94.30;;;;;;6213163;23;20772;-73
2023/07/20 00:48:43;;;;;;;11.90;11.40;;;19.90;93.60;;;;;;6212690;23;20452;-73
2023/07/20 00:51:14;;;;;;;12.07;11.57;;;19.90;93.00;;;;;;6212705;23;20415;-72
2023/07/20 00:53:41;;;;;;;11.87;11.33;;;19.90;92.80;;;;;;6213068;23;20538;-72
2023/07/20 00:56:08;;;;;;;12.47;11.97;;;19.90;92.90;;;;;;6212822;23;20419;-72
2023/07/20 00:58:35;;;;;;;11.90;11.40;;;19.90;92.90;;;;;;6213013;23;20896;-74
2023/07/20 01:01:03;;;;;;;13.13;12.50;;;19.90;93.00;;;;;;6213062;23;20409;-73
2023/07/20 01:03:30;;;;;;;13.13;12.43;;;20.00;92.80;;;;;;6213070;23;20415;-73
2023/07/20 01:06:04;;;;;;;12.13;11.63;;;19.90;92.80;;;;;;6213097;23;20420;-73
2023/07/20 01:08:36;;;;;;;12.53;11.93;;;19.90;93.20;;;;;;6212843;23;20435;-74
2023/07/20 01:11:10;;;;;;;12.33;11.83;;;19.80;93.30;;;;;;6213005;23;20393;-73
2023/07/20 01:13:38;;;;;;;12.40;11.90;;;19.80;93.50;;;;;;6212592;23;20435;-74
2023/07/20 01:16:06;;;;;;;12.43;11.70;;;19.70;93.50;;;;;;6212631;23;20437;-73
2023/07/20 01:18:33;;;;;;;11.60;11.10;;;19.70;93.50;;;;;;6212370;23;20508;-74
2023/07/20 01:21:04;;;;;;;11.20;10.70;;;19.70;93.70;;;;;;6212610;23;20729;-74
2023/07/20 01:24:05;;;;;;;12.00;11.30;;;19.70;93.90;;;;;;6212672;23;20394;-74
2023/07/20 01:27:16;;;;;;;11.40;10.90;;;19.70;93.90;;;;;;6212471;23;20400;-74
2023/07/20 01:30:09;;;;;;;12.43;11.73;;;19.60;94.00;;;;;;6212320;23;20436;-75
2023/07/20 01:32:40;;;;;;;13.17;12.67;;;19.60;94.40;;;;;;6212945;23;20391;-74
2023/07/20 01:35:07;;;;;;;13.20;12.50;;;19.60;94.20;;;;;;6212947;23;20397;-74
2023/07/20 01:37:39;;;;;;;12.80;12.30;;;19.50;94.40;;;;;;6212902;23;20420;-74
2023/07/20 01:40:07;;;;;;;11.33;10.83;;;19.50;94.70;;;;;;6212456;23;20396;-74
2023/07/20 01:42:34;;;;;;;12.87;12.20;;;19.40;94.80;;;;;;6212763;23;20455;-74
2023/07/20 01:45:01;;;;;;;11.97;11.23;;;19.40;95.20;;;;;;6212535;23;20408;-74
2023/07/20 01:47:27;;;;;;;12.87;12.37;;;19.30;95.40;;;;;;6212568;23;20416;-74
2023/07/20 01:49:55;;;;;;;12.30;11.70;;;19.30;95.60;;;;;;6212070;23;20447;-74
2023/07/20 01:52:22;;;;;;;12.97;12.27;;;19.30;95.70;;;;;;6212539;23;20408;-73
2023/07/20 01:54:49;;;;;;;13.70;12.90;;;19.20;95.90;;;;;;6212895;23;20405;-74
2023/07/20 01:57:15;;;;;;;11.97;11.47;;;19.20;95.90;;;;;;6212468;23;20499;-74
2023/07/20 01:59:42;;;;;;;11.53;11.03;;;19.10;96.40;;;;;;6212007;23;20947;-74
2023/07/20 02:02:09;;;;;;;13.00;12.50;;;19.00;96.50;;;;;;6212553;23;20401;-74
2023/07/20 02:04:36;;;;;;;13.10;12.60;;;19.00;96.90;;;;;;6212658;23;20413;-74
2023/07/20 02:07:04;;;;;;;13.43;12.57;;;19.00;97.10;;;;;;6212375;23;20431;-76
2023/07/20 02:09:31;;;;;;;12.23;11.73;;;19.00;97.30;;;;;;6212109;23;20441;-75
2023/07/20 02:11:57;;;;;;;12.20;11.63;;;18.90;97.40;;;;;;6212211;23;20412;-75
2023/07/20 02:14:24;;;;;;;12.57;11.97;;;18.80;97.90;;;;;;6211916;23;20475;-73
2023/07/20 02:16:52;;;;;;;12.03;11.63;;;18.70;98.10;;;;;;6212537;23;20393;-74
2023/07/20 02:19:18;;;;;;;13.33;12.73;;;18.60;98.70;;;;;;6212510;23;20503;-73
2023/07/20 02:21:45;;;;;;;12.73;12.23;;;18.60;98.90;;;;;;6211998;23;20405;-74
2023/07/20 02:24:13;;;;;;;12.80;12.10;;;18.50;99.10;;;;;;6212093;23;20715;-74
2023/07/20 02:26:40;;;;;;;12.67;12.17;;;18.40;99.70;;;;;;6211798;23;20746;-73
2023/07/20 02:29:08;;;;;;;12.70;12.00;;;18.40;99.90;;;;;;6211941;23;20441;-73
2023/07/20 02:31:37;;;;;;;12.73;12.23;;;18.30;99.90;;;;;;6212425;23;20408;-74
2023/07/20 02:34:04;;;;;;;12.43;11.83;;;18.30;99.90;;;;;;6212482;23;20413;-74
2023/07/20 02:36:32;;;;;;;12.33;11.73;;;18.30;99.90;;;;;;6212116;23;20416;-73
2023/07/20 02:39:00;;;;;;;15.53;14.63;;;18.20;99.90;;;;;;6211941;23;20687;-74
2023/07/20 02:41:28;;;;;;;13.60;12.80;;;18.20;99.90;;;;;;6212196;23;20777;-73
2023/07/20 02:43:56;;;;;;;13.07;12.47;;;18.20;99.90;;;;;;6211449;23;20420;-74
2023/07/20 02:46:23;;;;;;;13.63;12.93;;;18.10;99.90;;;;;;6211415;23;20609;-74
2023/07/20 02:48:49;;;;;;;12.10;11.60;;;18.00;99.90;;;;;;6211808;23;20413;-72
2023/07/20 02:51:16;;;;;;;13.30;12.60;;;18.00;99.90;;;;;;6211988;23;20409;-73
2023/07/20 02:53:43;;;;;;;14.43;13.77;;;17.90;99.90;;;;;;6211250;23;20420;-74
2023/07/20 02:56:09;;;;;;;12.33;11.77;;;17.80;99.90;;;;;;6211158;23;20409;-74
2023/07/20 02:58:43;;;;;;;13.50;12.63;;;17.70;99.90;;;;;;6211813;23;20405;-72
2023/07/20 03:01:10;;;;;;;12.90;12.40;;;17.80;99.90;;;;;;6211675;23;20397;-72
2023/07/20 03:03:38;;;;;;;15.30;14.47;;;17.60;99.90;;;;;;6211624;23;20416;-71
2023/07/20 03:06:05;;;;;;;13.10;12.53;;;17.60;99.90;;;;;;6211941;23;20417;-72
2023/07/20 03:08:32;;;;;;;13.60;13.07;;;17.60;99.90;;;;;;6211972;23;20738;-72
2023/07/20 03:10:58;;;;;;;14.03;13.10;;;17.50;99.90;;;;;;6211429;23;20440;-72
2023/07/20 03:13:25;;;;;;;11.87;11.37;;;17.50;99.90;;;;;;6211895;23;20436;-72
2023/07/20 03:15:54;;;;;;;12.60;11.90;;;17.50;99.90;;;;;;6211414;23;20776;-72
2023/07/20 03:18:21;;;;;;;12.50;11.90;;;17.50;99.90;;;;;;6212059;23;20409;-72
2023/07/20 03:20:48;;;;;;;13.20;12.40;;;17.50;99.90;;;;;;6211923;23;20411;-71
2023/07/20 03:23:15;;;;;;;15.60;14.43;;;17.50;99.90;;;;;;6211511;23;20415;-71
2023/07/20 03:25:42;;;;;;;14.70;14.00;;;17.50;99.90;;;;;;6211404;23;20412;-72
2023/07/20 03:28:09;;;;;;;14.07;13.30;;;17.50;99.90;;;;;;6211730;23;20408;-72
2023/07/20 03:30:36;;;;;;;13.80;12.60;;;17.50;99.90;;;;;;6211316;23;20970;-72
2023/07/20 03:33:04;;;;;;;13.70;12.73;;;17.50;99.90;;;;;;6211079;23;20413;-72
2023/07/20 03:35:31;;;;;;;13.93;13.33;;;17.40;99.90;;;;;;6211732;23;20479;-72
2023/07/20 03:37:58;;;;;;;12.97;12.23;;;17.30;99.90;;;;;;6211669;23;20760;-71
2023/07/20 03:40:25;;;;;;;13.73;12.97;;;17.30;99.90;;;;;;6212224;23;20550;-72
2023/07/20 03:42:51;;;;;;;14.30;13.60;;;17.20;99.90;;;;;;6213431;23;20413;-72
2023/07/20 03:45:18;;;;;;;14.33;13.73;;;17.20;99.90;;;;;;6212924;23;20408;-72
2023/07/20 03:47:46;;;;;;;14.13;13.13;;;17.20;99.90;;;;;;6212409;23;20881;-72
2023/07/20 03:50:15;;;;;;;13.53;12.53;;;17.30;99.90;;;;;;6212801;23;20476;-72
2023/07/20 03:52:41;;;;;;;13.97;13.17;;;17.30;99.90;;;;;;6212137;23;20523;-71
2023/07/20 03:55:09;;;;;;;14.50;13.80;;;17.40;99.90;;;;;;6212742;23;20409;-72
2023/07/20 03:57:36;;;;;;;14.83;14.07;;;17.50;99.90;;;;;;6212752;23;20966;-72
2023/07/20 04:00:04;;;;;;;14.67;13.60;;;17.50;99.90;;;;;;6213229;23;20416;-71
2023/07/20 04:02:31;;;;;;;12.70;12.10;;;17.50;99.90;;;;;;6212604;23;20408;-72
2023/07/20 04:04:58;;;;;;;13.10;12.50;;;17.60;99.90;;;;;;6212077;23;20420;-72
2023/07/20 04:07:26;;;;;;;13.70;13.10;;;17.60;99.90;;;;;;6212588;23;20713;-72
2023/07/20 04:09:52;;;;;;;12.63;12.10;;;17.70;99.90;;;;;;6212358;23;20451;-72
2023/07/20 04:12:19;;;;;;;13.60;13.00;;;17.80;99.90;;;;;;6212550;23;20412;-70
2023/07/20 04:14:46;;;;;;;15.13;14.20;;;17.80;99.90;;;;;;6211747;23;20959;-72
2023/07/20 04:17:13;;;;;;;13.93;13.23;;;17.70;99.90;;;;;;6212350;23;20991;-71
2023/07/20 04:19:39;;;;;;;14.30;13.50;;;17.80;99.90;;;;;;6212436;23;20500;-71
2023/07/20 04:22:06;;;;;;;14.57;13.47;;;17.90;99.90;;;;;;6211923;23;20643;-73
2023/07/20 04:24:34;;;;;;;14.37;13.60;;;17.90;99.90;;;;;;6211890;23;20409;-73
2023/07/20 04:27:01;;;;;;;15.07;14.17;;;17.90;99.90;;;;;;6212509;23;20415;-73
2023/07/20 04:29:28;;;;;;;16.20;15.00;;;18.10;99.90;;;;;;6212414;23;20436;-72
2023/07/20 04:31:54;;;;;;;15.53;14.57;;;18.10;99.90;;;;;;6211658;23;20413;-73
2023/07/20 04:34:21;;;;;;;15.53;14.57;;;18.20;99.90;;;;;;6212698;23;20735;-73
2023/07/20 04:36:48;;;;;;;14.70;13.80;;;18.30;99.90;;;;;;6212509;23;20405;-72
2023/07/20 04:39:14;;;;;;;13.90;12.80;;;18.30;99.90;;;;;;6211917;23;20860;-73
2023/07/20 04:41:42;;;;;;;14.57;13.83;;;18.50;99.90;;;;;;6212128;23;20409;-74
2023/07/20 04:44:09;;;;;;;15.07;14.13;;;18.90;99.90;;;;;;6212600;23;20759;-73
2023/07/20 04:46:36;;;;;;;13.87;13.07;;;19.30;99.90;;;;;;6212866;23;20413;-72
2023/07/20 04:49:03;;;;;;;13.40;12.67;;;19.90;99.90;;;;;;6212316;23;20929;-71
2023/07/20 04:51:30;;;;;;;13.37;12.40;;;20.50;99.90;;;;;;6211624;23;20449;-72
2023/07/20 04:53:57;;;;;;;14.60;13.70;;;20.80;99.40;;;;;;6212202;23;20413;-72
2023/07/20 04:56:25;;;;;;;13.77;12.77;;;21.00;98.70;;;;;;6212648;23;20413;-72
2023/07/20 04:58:53;;;;;;;13.40;12.80;;;21.20;98.20;;;;;;6212757;23;20420;-73
2023/07/20 05:01:19;;;;;;;14.07;13.27;;;21.50;98.20;;;;;;6212618;23;20507;-72
2023/07/20 05:03:46;;;;;;;13.20;12.60;;;22.10;96.60;;;;;;6212196;23;20415;-72
2023/07/20 05:06:13;;;;;;;15.27;14.50;;;22.50;94.90;;;;;;6212318;23;20409;-71
2023/07/20 05:08:40;;;;;;;14.50;13.80;;;22.80;94.50;;;;;;6211863;23;20901;-72
2023/07/20 05:11:07;;;;;;;13.70;12.90;;;23.20;93.90;;;;;;6212006;23;20440;-74
2023/07/20 05:13:33;;;;;;;15.30;13.83;;;23.70;92.40;;;;;;6212116;23;20437;-73
2023/07/20 05:16:19;;;;;;;15.40;14.40;;;23.60;91.70;;;;;;6211600;23;20510;-70
2023/07/20 05:18:46;;;;;;;14.73;14.03;;;23.70;91.50;;;;;;6208463;23;20417;-70
2023/07/20 05:21:14;;;;;;;14.90;13.90;;;23.70;91.60;;;;;;6211018;23;20427;-72
2023/07/20 05:23:40;;;;;;;13.63;13.03;;;23.90;91.00;;;;;;6211889;23;20444;-70
2023/07/20 05:26:07;;;;;;;16.50;15.43;;;24.30;90.30;;;;;;6210800;23;20408;-71
2023/07/20 05:28:34;;;;;;;14.07;13.57;;;24.70;89.60;;;;;;6210088;23;20865;-69
2023/07/20 05:31:03;;;;;;;12.80;12.23;;;25.20;86.80;;;;;;6210965;23;20743;-70
2023/07/20 05:33:30;;;;;;;13.83;12.90;;;25.40;84.60;;;;;;6211562;23;20425;-70
2023/07/20 05:35:57;;;;;;;13.70;13.00;;;25.30;83.80;;;;;;6211749;23;20416;-71
2023/07/20 05:38:23;;;;;;;13.83;12.83;;;24.90;84.90;;;;;;6211383;23;20404;-70
2023/07/20 05:40:50;;;;;;;14.40;13.60;;;24.70;85.60;;;;;;6212153;23;20741;-70
2023/07/20 05:43:17;;;;;;;13.60;13.00;;;24.60;86.40;;;;;;6212003;23;20444;-71
2023/07/20 05:45:44;;;;;;;14.80;14.20;;;24.70;87.60;;;;;;6211672;23;20436;-72
2023/07/20 05:48:12;;;;;;;14.23;13.47;;;24.50;86.80;;;;;;6211328;23;20790;-70
2023/07/20 05:50:42;;;;;;;13.33;12.83;;;24.40;87.20;;;;;;6211570;23;20574;-70
2023/07/20 05:53:09;;;;;;;12.87;12.30;;;24.30;87.40;;;;;;6211423;23;20734;-70
2023/07/20 05:55:35;;;;;;;15.57;14.77;;;24.30;87.50;;;;;;6211853;23;20427;-70
2023/07/20 05:58:04;;;;;;;13.57;12.97;;;24.20;88.50;;;;;;6211953;23;20424;-70
2023/07/20 06:00:30;;;;;;;14.00;13.40;;;24.10;89.40;;;;;;6205004;23;20460;-70
2023/07/20 06:02:57;;;;;;;14.00;13.27;;;24.20;89.20;;;;;;6211756;23;20417;-69
2023/07/20 06:05:25;;;;;;;14.53;13.93;;;24.30;89.50;;;;;;6211634;23;20409;-70
2023/07/20 06:07:52;;;;;;;15.20;14.57;;;24.80;88.10;;;;;;6212039;23;20409;-70
2023/07/20 06:10:19;;;;;;;14.00;13.40;;;25.60;85.40;;;;;;6212273;23;20523;-71
2023/07/20 06:12:45;;;;;;;14.30;13.70;;;26.40;82.40;;;;;;6210916;23;20419;-71
2023/07/20 06:15:26;;;;;;;15.00;14.27;;;26.60;81.50;;;;;;6211115;23;20444;-71
2023/07/20 06:17:55;;;;;;;14.77;14.07;;;26.60;80.60;;;;;;6211052;23;20857;-71
2023/07/20 06:20:22;;;;;;;14.60;13.90;;;26.50;80.90;;;;;;6211279;23;20470;-72
2023/07/20 06:22:51;;;;;;;14.53;13.83;;;26.40;80.10;;;;;;6211242;23;20915;-70
2023/07/20 06:25:17;;;;;;;14.60;13.70;;;26.20;80.40;;;;;;6211323;23;20416;-70
2023/07/20 06:27:44;;;;;;;13.80;13.10;;;25.70;82.20;;;;;;6210906;23;20409;-71
2023/07/20 06:30:11;;;;;;;14.43;13.70;;;25.50;83.30;;;;;;6211026;23;20515;-70
2023/07/20 06:32:38;;;;;;;13.87;13.27;;;25.40;83.70;;;;;;6210978;23;20412;-71
2023/07/20 06:35:06;;;;;;;13.83;13.30;;;25.80;82.80;;;;;;6211196;23;20888;-71
2023/07/20 06:37:33;;;;;;;14.13;13.53;;;26.20;80.80;;;;;;6211119;23;20918;-70
2023/07/20 06:40:03;;;;;;;14.50;13.80;;;26.60;79.80;;;;;;6210969;23;20405;-70
2023/07/20 06:42:30;;;;;;;14.40;13.80;;;26.90;78.50;;;;;;6211081;23;20499;-71
2023/07/20 06:44:58;;;;;;;14.33;13.73;;;26.50;79.50;;;;;;6210827;23;20885;-71
2023/07/20 06:47:24;;;;;;;15.47;14.57;;;26.80;78.80;;;;;;6210999;23;21004;-71
2023/07/20 06:49:51;;;;;;;15.17;14.57;;;27.10;78.40;;;;;;6211439;23;20408;-71
2023/07/20 06:52:18;;;;;;;14.63;14.00;;;27.40;77.60;;;;;;6211356;23;20452;-71
2023/07/20 06:54:45;;;;;;;14.13;13.60;;;28.00;75.40;;;;;;6210751;23;20709;-71
2023/07/20 06:57:13;;;;;;;15.40;14.40;;;28.20;75.10;;;;;;6211180;23;20417;-72
2023/07/20 06:59:39;;;;;;;14.07;13.50;;;28.80;73.50;;;;;;6210659;23;20409;-72
2023/07/20 07:02:06;;;;;;;14.30;13.70;;;29.10;71.20;;;;;;6211188;23;20940;-72
2023/07/20 07:04:33;;;;;;;14.33;13.73;;;29.00;71.50;;;;;;6211241;23;20409;-72
2023/07/20 07:07:00;;;;;;;13.80;13.20;;;29.30;70.00;;;;;;6210999;23;20471;-71
2023/07/20 07:09:27;;;;;;;12.43;11.93;;;29.70;67.80;;;;;;6210141;23;20414;-71
2023/07/20 07:11:56;;;;;;;14.47;13.77;;;29.50;68.20;;;;;;6210648;23;20453;-72
2023/07/20 07:14:24;;;;;;;14.63;13.93;;;29.30;68.30;;;;;;6210294;23;20433;-72
2023/07/20 07:16:50;;;;;;;13.80;13.20;;;29.10;68.70;;;;;;6212813;23;20794;-72
2023/07/20 07:19:17;;;;;;;13.37;12.83;;;28.30;70.00;;;;;;6212736;23;20400;-72
2023/07/20 07:21:44;;;;;;;12.60;12.00;;;28.40;70.20;;;;;;6211660;23;20419;-71
2023/07/20 07:24:11;;;;;;;15.40;14.70;;;29.00;69.00;;;;;;6212588;23;20415;-73
2023/07/20 07:26:37;;;;;;;15.17;14.47;;;29.10;68.40;;;;;;6212577;23;20405;-71
2023/07/20 07:29:04;;;;;;;14.60;13.93;;;29.40;66.70;;;;;;6212927;23;20396;-71
2023/07/20 07:31:35;;;;;;;14.23;13.67;;;29.70;66.00;;;;;;6212438;23;20447;-70
2023/07/20 07:34:02;;;;;;;14.23;13.47;;;30.20;64.30;;;;;;6212609;23;20397;-70
2023/07/20 07:36:29;;;;;;;13.80;13.27;;;30.60;64.10;;;;;;6212322;23;20570;-71
2023/07/20 07:38:55;;;;;;;14.30;13.80;;;31.30;61.60;;;;;;6212269;23;20747;-72
2023/07/20 07:41:22;;;;;;;13.43;12.83;;;31.30;61.30;;;;;;6212785;23;20427;-71
2023/07/20 07:43:49;;;;;;;13.60;12.90;;;31.60;59.00;;;;;;6212469;23;20420;-71
2023/07/20 07:46:16;;;;;;;14.83;13.90;;;31.50;59.30;;;;;;6212571;23;20419;-71
2023/07/20 07:48:44;;;;;;;14.53;13.90;;;32.00;58.80;;;;;;6212508;23;20416;-71
2023/07/20 07:51:11;;;;;;;15.53;14.30;;;31.70;57.20;;;;;;6212288;23;20454;-70
2023/07/20 07:53:39;;;;;;;14.40;13.70;;;32.10;57.80;;;;;;6211964;23;20820;-72
2023/07/20 07:56:08;;;;;;;15.87;15.17;;;32.30;57.00;;;;;;6212828;23;20415;-71
2023/07/20 07:58:35;;;;;;;15.20;14.70;;;31.90;57.40;;;;;;6212577;23;20500;-72
2023/07/20 08:01:02;;;;;;;14.90;14.30;;;32.50;56.10;;;;;;6212607;23;20417;-72
2023/07/20 08:03:29;;;;;;;13.70;13.20;;;32.30;55.80;;;;;;6212575;23;20761;-71
2023/07/20 08:05:59;;;;;;;16.00;14.80;;;32.10;56.30;;;;;;6212403;23;20439;-72
2023/07/20 08:08:26;;;;;;;16.60;15.83;;;32.70;55.40;;;;;;6211974;23;20403;-72
2023/07/20 08:10:54;;;;;;;16.77;15.90;;;32.80;54.10;;;;;;6211639;23;20448;-72
2023/07/20 08:13:21;;;;;;;16.47;15.77;;;32.50;54.50;;;;;;6212341;23;20424;-71
2023/07/20 08:15:51;;;;;;;15.60;15.00;;;32.40;54.20;;;;;;6212137;23;20440;-71
2023/07/20 08:18:18;;;;;;;14.40;13.90;;;32.80;52.90;;;;;;6211981;23;20400;-71
2023/07/20 08:20:45;;;;;;;15.63;15.00;;;32.50;53.50;;;;;;6211998;23;20408;-71
2023/07/20 08:23:13;;;;;;;15.23;14.53;;;32.00;53.90;;;;;;6211745;23;20712;-72
2023/07/20 08:25:43;;;;;;;15.33;14.60;;;31.50;55.00;;;;;;6212161;23;20413;-72
2023/07/20 08:28:10;;;;;;;15.00;14.40;;;31.10;55.70;;;;;;6211538;23;20401;-71
2023/07/20 08:30:42;;;;;;;14.30;13.80;;;30.40;56.60;;;;;;6211190;23;20738;-72
2023/07/20 08:33:08;;;;;;;13.77;13.20;;;30.80;55.20;;;;;;6212161;23;20405;-72
2023/07/20 08:35:35;;;;;;;14.43;13.90;;;31.40;54.00;;;;;;6211833;23;20436;-71
2023/07/20 08:38:04;;;;;;;15.20;14.60;;;31.50;53.90;;;;;;6209358;23;20417;-71
2023/07/20 08:40:32;;;;;;;15.17;14.40;;;31.00;54.50;;;;;;6210782;23;20474;-70
2023/07/20 08:43:00;;;;;;;14.50;13.90;;;29.90;57.00;;;;;;6212352;23;20416;-71
2023/07/20 08:45:27;;;;;;;14.80;14.10;;;29.90;56.50;;;;;;6211466;23;20948;-70
2023/07/20 08:47:56;;;;;;;14.90;14.20;;;29.80;56.80;;;;;;6211788;23;20884;-71
2023/07/20 08:50:25;;;;;;;15.40;14.50;;;28.90;58.60;;;;;;6212161;23;20455;-71
2023/07/20 08:52:53;;;;;;;14.23;13.63;;;28.60;59.10;;;;;;6212742;23;20444;-70
2023/07/20 08:55:22;;;;;;;13.57;13.03;;;28.20;59.80;;;;;;6212740;23;20432;-70
2023/07/20 08:57:52;;;;;;;14.20;13.50;;;27.50;60.00;;;;;;6212621;23;20478;-72
2023/07/20 09:00:21;;;;;;;15.07;14.27;;;27.80;60.60;;;;;;6212797;23;20726;-72
2023/07/20 09:02:51;;;;;;;14.33;13.53;;;28.50;59.10;;;;;;6212622;23;20401;-71
2023/07/20 09:05:18;;;;;;;13.60;13.10;;;28.60;58.70;;;;;;6212733;23;20405;-72
2023/07/20 09:07:44;;;;;;;14.83;14.00;;;28.60;59.20;;;;;;6212623;23;20721;-72
2023/07/20 09:10:12;;;;;;;14.80;14.20;;;28.10;58.90;;;;;;6212604;23;20397;-71
2023/07/20 09:12:40;;;;;;;14.57;13.97;;;27.90;60.00;;;;;;6211847;23;20526;-72
2023/07/20 09:15:10;;;;;;;14.80;14.20;;;28.10;61.20;;;;;;6211178;23;20440;-72
2023/07/20 09:17:37;;;;;;;15.40;14.70;;;28.60;59.70;;;;;;6211533;23;20413;-72
2023/07/20 09:20:08;;;;;;;14.63;13.83;;;29.90;57.20;;;;;;6211979;23;20441;-72
2023/07/20 09:22:35;;;;;;;15.67;14.60;;;30.80;55.70;;;;;;6212012;23;20401;-72
2023/07/20 09:25:02;;;;;;;16.80;16.00;;;31.70;54.50;;;;;;6212532;23;20412;-72
2023/07/20 09:27:37;;;;;;;16.40;15.70;;;32.10;52.00;;;;;;6212140;23;20790;-72
2023/07/20 09:30:05;;;;;;;14.20;13.60;;;32.20;51.90;;;;;;6211815;23;20861;-72
2023/07/20 09:32:38;;;;;;;14.83;14.23;;;31.00;52.50;;;;;;6211972;23;20535;-72
2023/07/20 09:35:06;;;;;;;15.63;15.03;;;30.40;54.60;;;;;;6212095;23;20393;-72
2023/07/20 09:37:34;;;;;;;15.10;14.40;;;30.90;54.20;;;;;;6211723;23;20412;-72
2023/07/20 09:40:01;;;;;;;15.37;14.53;;;31.10;51.80;;;;;;6211118;23;20416;-72
2023/07/20 09:42:28;;;;;;;14.43;13.67;;;30.70;53.80;;;;;;6210955;23;20405;-72
2023/07/20 09:44:54;;;;;;;15.70;15.00;;;30.50;53.40;;;;;;6211544;23;20423;-72
2023/07/20 09:47:24;;;;;;;14.93;14.33;;;31.50;52.70;;;;;;6212143;23;20744;-72
2023/07/20 09:49:59;;;;;;;15.10;14.50;;;31.20;52.00;;;;;;6211921;23;20645;-72
2023/07/20 09:52:26;;;;;;;15.23;14.53;;;29.90;53.00;;;;;;6211580;23;20428;-72
2023/07/20 09:54:55;;;;;;;14.40;13.80;;;29.50;54.40;;;;;;6211418;23;20410;-71
2023/07/20 09:57:22;;;;;;;13.67;13.10;;;28.80;55.00;;;;;;6211761;23;20452;-71
2023/07/20 09:59:49;;;;;;;13.50;13.00;;;29.20;55.00;;;;;;6211449;23;20416;-71
2023/07/20 10:02:22;;;;;;;14.67;13.83;;;30.00;53.60;;;;;;6211247;23;20413;-72
2023/07/20 10:04:54;;;;;;;13.93;13.43;;;30.60;51.80;;;;;;6211876;23;20397;-72
2023/07/20 10:07:24;;;;;;;15.13;14.33;;;30.80;51.80;;;;;;6212019;23;20400;-72
2023/07/20 10:09:53;;;;;;;15.00;14.27;;;32.20;49.90;;;;;;6211288;23;20401;-72
2023/07/20 10:12:23;;;;;;;15.90;15.40;;;33.20;47.90;;;;;;6211860;23;20453;-72
2023/07/20 10:14:57;;;;;;;15.03;14.43;;;33.80;46.80;;;;;;6211554;23;20445;-72
2023/07/20 10:17:26;;;;;;;16.40;15.63;;;34.40;46.10;;;;;;6211766;23;20718;-72
2023/07/20 10:19:59;;;;;;;14.33;13.83;;;33.40;45.90;;;;;;6211803;23;20443;-72
2023/07/20 10:22:27;;;;;;;14.10;13.60;;;31.90;47.00;;;;;;6211029;23;20435;-73
2023/07/20 10:24:58;;;;;;;13.63;13.03;;;29.70;50.10;;;;;;6211097;23;20416;-72
2023/07/20 10:27:25;;;;;;;15.37;14.77;;;28.90;52.20;;;;;;6211445;23;20477;-72
2023/07/20 10:29:52;;;;;;;13.87;13.23;;;29.10;52.80;;;;;;6211601;23;20420;-72
2023/07/20 10:32:20;;;;;;;14.10;13.57;;;28.80;53.20;;;;;;6212261;23;20447;-71
2023/07/20 10:34:51;;;;;;;13.40;12.90;;;29.80;52.00;;;;;;6211881;23;20409;-71
2023/07/20 10:37:53;;;;;;;13.93;13.20;;;30.80;50.20;;;;;;6212291;23;20393;-71
2023/07/20 10:40:32;;;;;;;14.10;13.60;;;31.80;47.70;;;;;;6212561;23;20758;-73
2023/07/20 10:43:04;;;;;;;14.00;13.50;;;32.70;47.00;;;;;;6211921;23;20416;-73
2023/07/20 10:45:35;;;;;;;14.90;14.10;;;33.30;45.20;;;;;;6212258;23;20463;-72
2023/07/20 10:48:05;;;;;;;15.53;14.73;;;33.70;44.30;;;;;;6212037;23;20393;-73
2023/07/20 10:50:33;;;;;;;16.40;15.70;;;34.20;43.30;;;;;;6211812;23;20471;-72
2023/07/20 10:53:12;;;;;;;14.93;14.10;;;35.10;41.90;;;;;;6211576;23;20955;-73
2023/07/20 10:55:38;;;;;;;14.73;14.23;;;35.60;41.60;;;;;;6212304;23;20419;-73
2023/07/20 10:58:10;;;;;;;14.90;14.30;;;34.40;41.30;;;;;;6211824;23;20416;-73
2023/07/20 11:00:37;;;;;;;14.80;14.10;;;33.00;43.10;;;;;;6211171;23;20742;-71
2023/07/20 11:03:05;;;;;;;15.43;14.73;;;33.20;44.00;;;;;;6211685;23;20425;-70
2023/07/20 11:05:39;;;;;;;14.67;14.17;;;33.80;42.70;;;;;;6212241;23;20405;-71
2023/07/20 11:08:11;;;;;;;14.50;13.90;;;33.50;41.70;;;;;;6212255;23;20704;-71
2023/07/20 11:10:38;;;;;;;15.07;14.37;;;33.60;41.10;;;;;;6212154;23;20415;-70
2023/07/20 11:13:18;;;;;;;15.90;14.80;;;32.20;42.90;;;;;;6212036;23;20444;-71
2023/07/20 11:15:49;;;;;;;14.47;13.77;;;30.70;44.10;;;;;;6209298;23;20455;-70
2023/07/20 11:18:16;;;;;;;14.77;14.07;;;29.60;45.80;;;;;;6211836;23;20428;-70
2023/07/20 11:20:43;;;;;;;13.63;13.10;;;29.40;46.90;;;;;;6211933;23;20421;-70
2023/07/20 11:23:11;;;;;;;14.10;13.50;;;29.40;46.10;;;;;;6211815;23;20404;-70
2023/07/20 11:25:40;;;;;;;15.13;14.53;;;29.20;45.80;;;;;;6212205;23;20409;-72
2023/07/20 11:28:10;;;;;;;14.90;14.30;;;30.00;45.70;;;;;;6212213;23;20409;-71
2023/07/20 11:30:37;;;;;;;15.73;14.80;;;31.00;44.30;;;;;;6212049;23;20786;-71
2023/07/20 11:33:04;;;;;;;14.30;13.80;;;31.10;44.90;;;;;;6211674;23;20487;-72
2023/07/20 11:35:31;;;;;;;14.87;14.27;;;30.70;45.30;;;;;;6211547;23;20408;-71
2023/07/20 11:37:58;;;;;;;14.43;13.93;;;31.30;44.00;;;;;;6211783;23;20758;-71
2023/07/20 11:40:26;;;;;;;15.50;14.90;;;32.10;41.90;;;;;;6211767;23;20409;-71
2023/07/20 11:42:53;;;;;;;15.30;14.67;;;32.90;42.80;;;;;;6211689;23;20408;-72
2023/07/20 11:45:20;;;;;;;14.03;13.43;;;33.80;40.50;;;;;;6212088;23;20409;-70
2023/07/20 11:47:47;;;;;;;15.70;15.00;;;33.40;40.80;;;;;;6211922;23;20412;-72
2023/07/20 11:50:14;;;;;;;15.27;14.67;;;33.50;40.10;;;;;;6211915;23;20408;-72
2023/07/20 11:52:41;;;;;;;15.03;14.43;;;33.70;40.40;;;;;;6212071;23;20452;-72
2023/07/20 11:55:09;;;;;;;15.23;14.73;;;33.40;39.70;;;;;;6212606;23;20416;-72
2023/07/20 11:57:38;;;;;;;14.23;13.60;;;33.90;39.40;;;;;;6212221;23;20420;-71
2023/07/20 12:00:10;;;;;;;14.03;13.43;;;32.60;40.00;;;;;;6209289;23;20412;-70
2023/07/20 12:02:39;;;;;;;14.97;14.47;;;31.60;42.50;;;;;;6213989;23;20416;-73
2023/07/20 12:05:07;;;;;;;15.10;14.50;;;31.80;42.20;;;;;;6214066;23;20413;-71
2023/07/20 12:07:39;;;;;;;16.70;16.10;;;32.00;41.60;;;;;;6214100;23;20412;-72
2023/07/20 12:10:08;;;;;;;16.77;15.80;;;32.80;40.20;;;;;;6214036;23;20397;-73
2023/07/20 12:12:34;;;;;;;15.60;15.00;;;33.60;40.00;;;;;;6213580;23;20440;-72
2023/07/20 12:15:16;;;;;;;14.83;14.17;;;34.50;38.50;;;;;;6213179;23;20440;-72
2023/07/20 12:17:44;;;;;;;14.83;14.33;;;34.60;36.70;;;;;;6213450;23;20408;-72
2023/07/20 12:20:12;;;;;;;15.10;14.40;;;34.40;37.00;;;;;;6213138;23;20409;-72
2023/07/20 12:22:42;;;;;;;14.70;13.90;;;34.60;37.00;;;;;;6213166;23;20920;-72
2023/07/20 12:25:09;;;;;;;14.57;14.07;;;33.90;36.80;;;;;;6213428;23;20400;-71
2023/07/20 12:27:37;;;;;;;14.83;14.17;;;32.60;39.00;;;;;;6213450;23;20748;-71
2023/07/20 12:30:05;;;;;;;16.00;15.40;;;32.70;38.40;;;;;;6213266;23;20912;-72
2023/07/20 12:32:34;;;;;;;15.40;14.70;;;33.30;38.50;;;;;;6212820;23;20448;-71
2023/07/20 12:35:01;;;;;;;15.07;14.57;;;33.80;38.40;;;;;;6213205;23;20409;-71